Time;durP1;ratioP1;P1;durP2;ratioP2;P2;SDS_P1;SDS_P2;PMS_P1;PMS_P2;Temp;Humidity;BMP_temperature;BMP_pressure;BME280_temperature;BME280_humidity;BME280_pressure;Samples;Min_cycle;Max_cycle;Signal;HPM_P1;HPM_P2
2021/12/19 00:00:46;;;;;;;9.32;5.15;;;1.20;99.90;;;;;;4917859;29;20056;-83
2021/12/19 00:08:51;;;;;;;16.48;5.40;;;1.20;99.90;;;;;;4915165;29;20523;-78
2021/12/19 00:11:22;;;;;;;15.13;6.18;;;1.20;99.90;;;;;;4922867;29;20032;-81
2021/12/19 00:13:49;;;;;;;14.02;5.07;;;1.20;99.90;;;;;;4896530;29;20040;-79
2021/12/19 00:16:15;;;;;;;16.77;7.65;;;1.20;99.90;;;;;;4896880;29;20435;-78
2021/12/19 00:18:43;;;;;;;12.00;6.47;;;1.20;99.90;;;;;;4912900;29;20032;-79
2021/12/19 00:21:12;;;;;;;17.33;8.30;;;1.20;99.90;;;;;;4937495;29;20047;-85
2021/12/19 00:23:39;;;;;;;10.20;5.00;;;1.10;99.90;;;;;;4916896;29;20047;-81
2021/12/19 00:26:15;;;;;;;11.63;5.07;;;1.20;99.90;;;;;;4919211;29;20103;-82
2021/12/19 00:28:42;;;;;;;14.00;5.50;;;1.10;99.90;;;;;;4900900;29;20233;-78
2021/12/19 00:31:08;;;;;;;6.80;4.47;;;1.10;99.90;;;;;;4912454;29;20047;-79
2021/12/19 00:33:34;;;;;;;9.05;5.63;;;1.10;99.90;;;;;;4912416;29;20030;-79
2021/12/19 00:36:01;;;;;;;12.50;6.47;;;1.10;99.90;;;;;;4897282;29;20123;-80
2021/12/19 00:38:27;;;;;;;6.93;4.47;;;1.10;99.90;;;;;;4906704;29;20130;-82
2021/12/19 00:40:53;;;;;;;14.70;4.72;;;;;;;;;;4931719;29;20092;-83
2021/12/19 00:43:32;;;;;;;13.80;6.85;;;1.10;99.90;;;;;;4915148;29;20032;-83
2021/12/19 00:46:05;;;;;;;8.65;4.53;;;0.10;99.90;;;;;;4912546;29;20032;-81
2021/12/19 00:48:35;;;;;;;10.93;5.93;;;1.10;99.90;;;;;;4931544;29;20024;-81
2021/12/19 00:51:01;;;;;;;10.73;5.38;;;1.20;99.90;;;;;;4912929;29;20035;-81
2021/12/19 00:53:27;;;;;;;15.80;5.20;;;1.10;99.90;;;;;;4911730;29;20028;-82
2021/12/19 00:55:53;;;;;;;7.72;4.53;;;1.10;99.90;;;;;;4901859;29;20179;-80
2021/12/19 00:58:18;;;;;;;7.53;5.30;;;1.00;99.90;;;;;;4926349;29;20028;-81
2021/12/19 01:00:44;;;;;;;8.65;5.47;;;1.00;99.90;;;;;;4908983;29;20064;-82
2021/12/19 01:03:14;;;;;;;11.93;5.05;;;1.00;99.90;;;;;;4937018;29;20017;-83
2021/12/19 01:05:42;;;;;;;11.65;6.88;;;;;;;;;;4922058;29;20051;-90
2021/12/19 01:08:12;;;;;;;9.13;6.00;;;1.20;99.90;;;;;;4898321;29;20632;-84
2021/12/19 01:10:39;;;;;;;6.90;3.63;;;1.10;99.90;;;;;;4896713;29;20028;-83
2021/12/19 01:13:05;;;;;;;9.20;4.20;;;;;;;;;;4897065;29;20040;-83
2021/12/19 01:15:32;;;;;;;6.32;3.45;;;1.10;99.90;;;;;;4897605;29;20043;-86
2021/12/19 01:17:58;;;;;;;17.60;6.82;;;;;;;;;;4898323;29;20087;-88
2021/12/19 01:20:28;;;;;;;7.93;4.70;;;3.00;99.90;;;;;;4897948;29;20179;-91
2021/12/19 01:22:55;;;;;;;4.28;3.40;;;1.20;99.90;;;;;;4898122;29;20032;-83
2021/12/19 01:25:21;;;;;;;12.63;6.22;;;;;;;;;;4897455;29;20032;-82
2021/12/19 01:27:47;;;;;;;13.80;4.88;;;;;;;;;;4897361;29;20032;-82
2021/12/19 01:30:14;;;;;;;18.17;6.38;;;0.90;99.90;;;;;;4899027;29;20020;-81
2021/12/19 01:32:41;;;;;;;9.38;6.18;;;1.50;99.90;;;;;;4901814;29;20048;-84
2021/12/19 01:35:09;;;;;;;9.05;4.70;;;0.90;99.90;;;;;;4914357;29;20040;-80
2021/12/19 01:37:35;;;;;;;11.85;6.45;;;0.90;99.90;;;;;;4914255;29;20028;-80
2021/12/19 01:40:02;;;;;;;9.02;3.75;;;0.80;99.90;;;;;;4897289;29;20561;-80
2021/12/19 01:42:33;;;;;;;11.88;3.35;;;0.80;99.90;;;;;;4897687;29;20531;-80
2021/12/19 01:44:59;;;;;;;7.45;4.28;;;0.80;99.90;;;;;;4897200;29;20100;-80
2021/12/19 01:47:25;;;;;;;12.27;5.88;;;0.90;99.90;;;;;;4897357;29;20489;-79
2021/12/19 01:49:52;;;;;;;13.65;6.15;;;0.90;99.90;;;;;;4897992;29;20580;-80
2021/12/19 01:52:19;;;;;;;7.10;4.65;;;0.90;99.90;;;;;;4898508;29;20500;-80
2021/12/19 01:54:46;;;;;;;12.13;3.63;;;0.90;99.90;;;;;;4898650;29;20053;-80
2021/12/19 01:57:11;;;;;;;17.48;6.10;;;0.90;99.90;;;;;;4898666;29;20032;-80
2021/12/19 01:59:37;;;;;;;12.93;5.15;;;0.80;99.90;;;;;;4898816;29;20120;-80
2021/12/19 02:02:03;;;;;;;14.43;7.45;;;0.90;99.90;;;;;;4914731;29;20398;-80
2021/12/19 02:04:30;;;;;;;14.25;5.32;;;0.90;99.90;;;;;;4898204;29;20032;-79
2021/12/19 02:06:58;;;;;;;14.68;5.80;;;0.90;99.90;;;;;;4898919;29;20039;-79
2021/12/19 02:09:24;;;;;;;12.95;6.13;;;0.90;99.90;;;;;;4898072;29;20031;-80
2021/12/19 02:11:51;;;;;;;12.32;6.57;;;0.90;99.90;;;;;;4915033;29;20020;-79
2021/12/19 02:14:17;;;;;;;14.27;5.95;;;0.90;99.90;;;;;;4897695;29;20020;-80
2021/12/19 02:16:42;;;;;;;15.77;6.15;;;0.90;99.90;;;;;;4897756;29;20496;-80
2021/12/19 02:19:10;;;;;;;9.90;4.55;;;0.90;99.90;;;;;;4914874;29;20024;-79
2021/12/19 02:21:37;;;;;;;11.10;5.80;;;;;;;;;;4913860;29;20068;-81
2021/12/19 02:24:10;;;;;;;13.75;4.30;;;1.00;99.90;;;;;;4915328;29;20498;-80
2021/12/19 02:26:38;;;;;;;11.65;4.13;;;1.00;99.90;;;;;;4898015;29;20083;-79
2021/12/19 02:29:05;;;;;;;5.85;2.22;;;1.00;99.90;;;;;;4897735;29;20035;-80
2021/12/19 02:31:31;;;;;;;15.88;4.80;;;1.00;99.90;;;;;;4897976;29;20043;-80
2021/12/19 02:36:46;;;;;;;10.52;5.38;;;0.90;99.90;;;;;;4914516;29;20069;-80
2021/12/19 02:50:11;;;;;;;7.45;4.20;;;1.00;99.90;;;;;;4915312;29;20054;-81
2021/12/19 02:52:37;;;;;;;12.45;5.07;;;;;;;;;;4897614;29;20028;-81
2021/12/19 02:55:04;;;;;;;8.60;4.82;;;1.00;99.90;;;;;;4897794;29;20390;-81
2021/12/19 02:57:34;;;;;;;20.38;6.78;;;0.90;99.90;;;;;;4914348;29;20031;-80
2021/12/19 03:00:00;;;;;;;11.30;6.07;;;0.90;99.90;;;;;;4897389;29;20396;-80
2021/12/19 03:02:27;;;;;;;10.95;4.47;;;0.90;99.90;;;;;;4897067;29;20052;-80
2021/12/19 03:04:58;;;;;;;8.23;5.05;;;1.10;99.90;;;;;;4897095;29;20031;-80
2021/12/19 03:07:25;;;;;;;10.75;6.65;;;0.90;99.90;;;;;;4896883;29;20028;-80
2021/12/19 03:12:57;;;;;;;11.05;3.88;;;0.90;99.90;;;;;;4914099;29;20024;-80
2021/12/19 03:18:10;;;;;;;9.70;5.00;;;0.90;99.90;;;;;;4914233;29;20183;-80
2021/12/19 03:20:37;;;;;;;10.38;5.53;;;0.90;99.90;;;;;;4897054;29;20039;-80
2021/12/19 03:23:05;;;;;;;8.07;3.22;;;0.90;99.90;;;;;;4896699;29;20496;-80
2021/12/19 03:25:32;;;;;;;11.65;4.97;;;0.90;99.90;;;;;;4913935;29;20028;-80
2021/12/19 03:27:59;;;;;;;10.13;5.15;;;0.90;99.90;;;;;;4896920;29;20025;-80
2021/12/19 03:30:25;;;;;;;7.82;3.78;;;0.80;99.90;;;;;;4914181;29;20091;-81
2021/12/19 03:32:51;;;;;;;13.80;3.45;;;0.80;99.90;;;;;;4913715;29;20032;-81
2021/12/19 03:35:17;;;;;;;12.30;6.38;;;1.00;99.90;;;;;;4897542;29;20044;-80
2021/12/19 03:37:43;;;;;;;10.98;5.22;;;;;;;;;;4897354;29;20036;-81
2021/12/19 03:40:12;;;;;;;14.15;4.65;;;0.70;99.90;;;;;;4914795;29;20032;-80
2021/12/19 03:42:49;;;;;;;14.73;6.35;;;0.70;99.90;;;;;;4897294;29;20056;-79
2021/12/19 03:45:18;;;;;;;10.80;6.60;;;0.60;99.90;;;;;;4896395;29;20032;-80
2021/12/19 03:47:45;;;;;;;12.82;5.22;;;0.60;99.90;;;;;;4913527;29;20084;-79
2021/12/19 03:50:15;;;;;;;6.28;4.70;;;0.70;99.90;;;;;;4896805;29;20573;-79
2021/12/19 03:52:41;;;;;;;11.65;6.82;;;0.80;99.90;;;;;;4896403;29;20489;-79
2021/12/19 03:55:07;;;;;;;19.85;5.90;;;0.90;99.90;;;;;;4896642;29;20052;-80
2021/12/19 03:57:33;;;;;;;17.70;7.35;;;;;;;;;;4896726;29;20119;-80
2021/12/19 03:59:58;;;;;;;14.10;5.13;;;0.80;99.90;;;;;;4914010;29;20032;-80
2021/12/19 04:02:26;;;;;;;15.57;6.68;;;;;;;;;;4897004;29;20083;-82
2021/12/19 04:04:55;;;;;;;10.93;4.85;;;0.80;99.90;;;;;;4897441;29;20378;-80
2021/12/19 04:07:22;;;;;;;7.37;3.40;;;0.80;99.90;;;;;;4897010;29;20032;-83
2021/12/19 04:09:48;;;;;;;7.50;3.33;;;0.80;99.90;;;;;;4897139;29;20025;-81
2021/12/19 04:12:15;;;;;;;11.98;6.07;;;0.70;99.90;;;;;;4897156;29;20031;-81
2021/12/19 04:14:41;;;;;;;17.35;5.28;;;0.70;99.90;;;;;;4896851;29;20381;-80
2021/12/19 04:17:07;;;;;;;29.77;5.47;;;;;;;;;;4913303;29;20043;-80
2021/12/19 04:19:33;;;;;;;11.27;6.10;;;0.80;99.90;;;;;;4896548;29;20123;-79
2021/12/19 04:22:02;;;;;;;19.67;7.05;;;0.70;99.90;;;;;;4895773;29;20172;-80
2021/12/19 04:24:28;;;;;;;5.45;3.78;;;0.70;99.90;;;;;;4913243;29;20478;-80
2021/12/19 04:26:55;;;;;;;10.32;4.80;;;0.70;99.90;;;;;;4913673;29;20084;-80
2021/12/19 04:29:23;;;;;;;8.10;5.88;;;0.70;99.90;;;;;;4913087;29;20024;-80
2021/12/19 04:31:49;;;;;;;11.35;5.28;;;0.70;99.90;;;;;;4896244;29;20028;-80
2021/12/19 04:34:16;;;;;;;9.13;4.88;;;0.70;99.90;;;;;;4896144;29;20122;-80
2021/12/19 04:36:44;;;;;;;10.00;5.72;;;1.00;99.90;;;;;;4895926;29;20091;-80
2021/12/19 04:39:26;;;;;;;17.52;7.13;;;0.90;99.90;;;;;;4898747;29;20135;-80
2021/12/19 04:50:56;;;;;;;11.15;4.30;;;;;;;;;;4917660;29;20508;-80
2021/12/19 05:03:40;;;;;;;11.82;5.47;;;0.70;99.90;;;;;;4916340;29;20025;-80
2021/12/19 05:14:19;;;;;;;14.85;6.93;;;0.90;99.90;;;;;;4916068;29;20889;-80
2021/12/19 05:16:47;;;;;;;7.95;5.03;;;0.60;99.90;;;;;;4899436;29;20473;-80
2021/12/19 05:19:23;;;;;;;12.43;4.80;;;0.60;99.90;;;;;;4899050;29;20043;-80
2021/12/19 05:21:53;;;;;;;14.32;6.07;;;0.60;99.90;;;;;;4898641;29;20043;-80
2021/12/19 05:24:32;;;;;;;13.32;5.47;;;0.60;99.90;;;;;;4914540;29;20087;-80
2021/12/19 05:26:58;;;;;;;17.33;5.88;;;;;;;;;;4898979;29;20040;-80
2021/12/19 05:29:23;;;;;;;7.80;4.45;;;0.60;99.90;;;;;;4899351;29;20024;-80
2021/12/19 05:31:50;;;;;;;19.30;5.63;;;0.70;99.90;;;;;;4899488;29;20078;-80
2021/12/19 05:34:16;;;;;;;5.68;4.55;;;0.70;99.90;;;;;;4899288;29;20040;-81
2021/12/19 05:47:23;;;;;;;10.32;4.90;;;0.80;99.90;;;;;;4915972;29;20028;-81
2021/12/19 05:49:49;;;;;;;10.70;4.80;;;0.80;99.90;;;;;;4897463;29;20029;-81
2021/12/19 05:52:15;;;;;;;10.10;5.78;;;;;;;;;;4898598;29;20067;-80
2021/12/19 05:54:41;;;;;;;11.65;5.28;;;0.70;99.90;;;;;;4915324;29;20123;-80
2021/12/19 05:57:09;;;;;;;12.23;6.53;;;0.70;99.90;;;;;;4898603;29;20029;-80
2021/12/19 05:59:35;;;;;;;8.40;4.63;;;;;;;;;;4898904;29;20032;-80
2021/12/19 06:02:01;;;;;;;15.98;6.32;;;;;;;;;;4898623;29;20122;-81
2021/12/19 06:04:27;;;;;;;14.25;6.60;;;;;;;;;;4898548;29;20275;-80
2021/12/19 06:06:53;;;;;;;13.23;6.20;;;0.60;99.90;;;;;;4915244;29;20028;-80
2021/12/19 06:09:19;;;;;;;17.25;6.00;;;;;;;;;;4898469;29;20091;-80
2021/12/19 06:11:45;;;;;;;8.02;5.53;;;;;;;;;;4915729;29;20039;-81
2021/12/19 06:14:11;;;;;;;12.35;6.95;;;;;;;;;;4898355;29;20160;-80
2021/12/19 06:16:37;;;;;;;8.88;4.90;;;0.50;99.90;;;;;;4898598;29;20188;-80
2021/12/19 06:19:02;;;;;;;11.77;4.60;;;0.50;99.90;;;;;;4898267;29;20231;-80
2021/12/19 06:21:28;;;;;;;13.95;5.90;;;;;;;;;;4897634;29;20413;-79
2021/12/19 06:23:54;;;;;;;11.63;5.90;;;;;;;;;;4914854;29;20028;-80
2021/12/19 06:26:20;;;;;;;22.83;7.03;;;0.40;99.90;;;;;;4915419;29;20377;-80
2021/12/19 06:28:46;;;;;;;12.60;6.47;;;0.40;99.90;;;;;;4915092;29;20020;-79
2021/12/19 06:31:13;;;;;;;10.57;6.18;;;0.40;99.90;;;;;;4914816;29;20039;-79
2021/12/19 06:33:39;;;;;;;14.80;5.70;;;0.30;99.90;;;;;;4897683;29;20486;-82
2021/12/19 06:36:05;;;;;;;14.10;5.78;;;0.40;99.90;;;;;;4898143;29;20042;-81
2021/12/19 06:38:31;;;;;;;13.82;7.00;;;0.40;99.90;;;;;;4915548;29;20236;-80
2021/12/19 06:40:57;;;;;;;13.60;6.97;;;0.50;99.90;;;;;;4898409;29;20196;-80
2021/12/19 06:43:22;;;;;;;12.43;4.32;;;0.40;99.90;;;;;;4898167;29;20028;-81
2021/12/19 06:45:48;;;;;;;14.63;6.05;;;-1.30;99.90;;;;;;4898076;29;20047;-81
2021/12/19 06:48:14;;;;;;;13.48;6.80;;;0.90;99.90;;;;;;4898691;29;20032;-89
2021/12/19 06:50:39;;;;;;;12.60;4.63;;;0.30;99.90;;;;;;4914753;29;20055;-80
2021/12/19 06:53:05;;;;;;;10.13;5.65;;;0.30;99.90;;;;;;4897253;29;20047;-80
2021/12/19 06:55:31;;;;;;;10.27;5.25;;;1.20;99.90;;;;;;4897393;29;20389;-80
2021/12/19 06:57:56;;;;;;;13.95;5.18;;;0.30;99.90;;;;;;4914298;29;20098;-79
2021/12/19 07:00:24;;;;;;;12.30;5.75;;;0.80;99.90;;;;;;4897092;29;20032;-79
2021/12/19 07:02:52;;;;;;;20.58;7.30;;;0.50;99.90;;;;;;4897653;29;20501;-80
2021/12/19 07:05:18;;;;;;;12.02;7.28;;;0.50;99.90;;;;;;4914505;29;20477;-81
2021/12/19 07:07:44;;;;;;;16.15;5.88;;;;;;;;;;4897145;29;20118;-80
2021/12/19 07:10:10;;;;;;;8.98;5.45;;;0.60;99.90;;;;;;4897254;29;20318;-79
2021/12/19 07:12:35;;;;;;;14.30;6.57;;;0.60;99.90;;;;;;4897039;29;20043;-80
2021/12/19 07:15:03;;;;;;;7.80;3.30;;;0.40;99.90;;;;;;4897237;29;20024;-80
2021/12/19 07:17:28;;;;;;;13.95;4.45;;;0.40;99.90;;;;;;4914075;29;20210;-80
2021/12/19 07:19:54;;;;;;;13.52;5.68;;;0.50;99.90;;;;;;4896942;29;20233;-80
2021/12/19 07:22:20;;;;;;;12.15;6.15;;;1.00;99.90;;;;;;4896554;29;20405;-80
2021/12/19 07:24:46;;;;;;;12.40;5.95;;;0.40;99.90;;;;;;4896864;29;20445;-80
2021/12/19 07:27:15;;;;;;;11.57;5.10;;;0.40;99.90;;;;;;4896659;29;20378;-80
2021/12/19 07:29:42;;;;;;;17.80;6.13;;;0.50;99.90;;;;;;4897065;29;20459;-81
2021/12/19 07:32:08;;;;;;;22.15;7.22;;;0.50;99.90;;;;;;4896782;29;20036;-82
2021/12/19 07:34:36;;;;;;;9.77;5.55;;;0.50;99.90;;;;;;4896978;29;20074;-81
2021/12/19 07:37:02;;;;;;;7.55;4.38;;;0.40;99.90;;;;;;4896835;29;20044;-80
2021/12/19 07:42:19;;;;;;;13.00;6.65;;;0.30;99.90;;;;;;4913738;29;20497;-80
2021/12/19 07:44:45;;;;;;;18.42;8.40;;;0.40;99.90;;;;;;4896266;29;20025;-80
2021/12/19 07:47:12;;;;;;;23.88;8.07;;;0.40;99.90;;;;;;4913710;29;20027;-80
2021/12/19 07:49:37;;;;;;;14.35;7.25;;;0.50;99.90;;;;;;4896985;29;20115;-80
2021/12/19 07:52:04;;;;;;;15.68;7.15;;;0.90;99.90;;;;;;4913697;29;20028;-80
2021/12/19 07:54:29;;;;;;;20.05;6.80;;;0.50;99.90;;;;;;4897512;29;20024;-81
2021/12/19 07:56:55;;;;;;;12.48;5.40;;;0.50;99.90;;;;;;4897196;29;20043;-80
2021/12/19 07:59:21;;;;;;;22.42;5.90;;;0.40;99.90;;;;;;4914534;29;20541;-80
2021/12/19 08:01:48;;;;;;;16.33;4.72;;;0.50;99.90;;;;;;4892175;29;20036;-80
2021/12/19 08:04:14;;;;;;;10.20;4.32;;;0.50;99.90;;;;;;4878824;29;20393;-80
2021/12/19 08:06:40;;;;;;;21.10;6.63;;;0.50;99.90;;;;;;4895458;29;20039;-81
2021/12/19 08:09:10;;;;;;;11.73;4.82;;;0.60;99.90;;;;;;4895420;29;20029;-81
2021/12/19 08:11:40;;;;;;;12.70;6.53;;;0.60;99.90;;;;;;4896056;29;20056;-86
2021/12/19 08:14:12;;;;;;;17.10;6.65;;;0.60;99.90;;;;;;4896061;29;20029;-80
2021/12/19 08:16:39;;;;;;;15.35;7.68;;;0.60;99.90;;;;;;4898195;29;20044;-81
2021/12/19 08:19:05;;;;;;;16.90;5.80;;;0.60;99.90;;;;;;4901463;29;20032;-80
2021/12/19 08:21:31;;;;;;;6.50;4.07;;;0.70;99.90;;;;;;4902588;29;20036;-79
2021/12/19 08:24:02;;;;;;;8.55;5.45;;;0.70;99.90;;;;;;4899422;29;20037;-80
2021/12/19 08:26:31;;;;;;;16.15;6.35;;;0.70;99.90;;;;;;4887213;29;20024;-82
2021/12/19 08:28:56;;;;;;;24.80;8.80;;;0.70;99.90;;;;;;4902836;29;20029;-82
2021/12/19 08:31:23;;;;;;;19.13;7.57;;;0.70;99.90;;;;;;4900281;29;20127;-81
2021/12/19 08:33:49;;;;;;;17.95;8.65;;;0.80;99.90;;;;;;4907239;29;20028;-80
2021/12/19 08:36:15;;;;;;;17.05;7.75;;;0.90;99.90;;;;;;4929357;29;20028;-80
2021/12/19 08:38:41;;;;;;;13.82;7.07;;;0.90;99.90;;;;;;4923243;29;20099;-81
2021/12/19 08:41:06;;;;;;;8.07;5.38;;;0.90;99.90;;;;;;4925284;29;20323;-80
2021/12/19 08:43:32;;;;;;;19.50;7.47;;;1.00;99.90;;;;;;4923082;29;20024;-79
2021/12/19 08:45:58;;;;;;;17.83;5.85;;;1.20;99.90;;;;;;4915819;29;20024;-80
2021/12/19 08:48:24;;;;;;;9.32;6.15;;;1.50;99.90;;;;;;4921671;29;20053;-81
2021/12/19 08:50:52;;;;;;;10.00;5.30;;;1.60;99.90;;;;;;4917618;29;20020;-80
2021/12/19 08:53:17;;;;;;;12.18;6.53;;;1.60;99.90;;;;;;4899458;29;20172;-80
2021/12/19 08:55:44;;;;;;;12.82;6.47;;;1.60;99.90;;;;;;4897852;29;20111;-80
2021/12/19 08:58:10;;;;;;;20.80;6.63;;;1.40;99.90;;;;;;4915000;29;20163;-79
2021/12/19 09:00:37;;;;;;;12.27;5.57;;;1.40;99.90;;;;;;4900657;29;20028;-82
2021/12/19 09:03:03;;;;;;;16.80;7.82;;;1.30;99.90;;;;;;4909917;29;20028;-81
2021/12/19 09:05:29;;;;;;;13.30;5.80;;;1.30;99.90;;;;;;4909075;29;20071;-80
2021/12/19 09:07:55;;;;;;;11.82;5.95;;;1.40;99.90;;;;;;4926608;29;20020;-79
2021/12/19 09:10:22;;;;;;;13.82;6.35;;;1.30;99.90;;;;;;4924007;29;20443;-80
2021/12/19 09:12:48;;;;;;;20.58;8.40;;;1.30;99.90;;;;;;4909517;29;20068;-84
2021/12/19 09:15:15;;;;;;;13.65;6.40;;;1.30;99.90;;;;;;4925454;29;20028;-81
2021/12/19 09:17:41;;;;;;;11.23;4.72;;;1.40;99.90;;;;;;4926497;29;20066;-80
2021/12/19 09:20:09;;;;;;;17.73;5.45;;;1.30;99.90;;;;;;4909108;29;20320;-81
2021/12/19 09:22:35;;;;;;;13.38;6.95;;;1.20;99.90;;;;;;4925977;29;20254;-80
2021/12/19 09:25:01;;;;;;;16.00;5.25;;;1.20;99.90;;;;;;4904476;29;20107;-80
2021/12/19 09:27:27;;;;;;;10.77;5.65;;;1.30;99.90;;;;;;4915158;29;20034;-81
2021/12/19 09:29:53;;;;;;;13.20;5.22;;;1.30;99.90;;;;;;4909679;29;20051;-79
2021/12/19 09:32:19;;;;;;;15.57;7.50;;;1.40;99.90;;;;;;4905906;29;20020;-81
2021/12/19 09:34:45;;;;;;;14.82;6.43;;;1.60;99.90;;;;;;4900084;29;20055;-81
2021/12/19 09:37:12;;;;;;;11.43;6.03;;;1.50;99.90;;;;;;4903950;29;20020;-84
2021/12/19 09:39:39;;;;;;;6.15;4.88;;;1.70;99.90;;;;;;4918272;29;20465;-80
2021/12/19 09:42:09;;;;;;;24.45;7.75;;;1.80;99.90;;;;;;4897966;29;20051;-81
2021/12/19 09:44:37;;;;;;;14.32;6.60;;;1.80;99.90;;;;;;4898976;29;20501;-79
2021/12/19 09:47:05;;;;;;;9.05;6.15;;;1.80;99.90;;;;;;4898732;29;20024;-80
2021/12/19 09:49:33;;;;;;;16.75;6.80;;;1.70;99.90;;;;;;4915726;29;20024;-79
2021/12/19 09:51:59;;;;;;;13.82;5.57;;;1.70;99.90;;;;;;4898139;29;20039;-81
2021/12/19 09:54:24;;;;;;;14.30;5.65;;;1.70;99.90;;;;;;4915347;29;20028;-80
2021/12/19 09:56:52;;;;;;;20.77;7.43;;;1.60;99.90;;;;;;4899048;29;20028;-81
2021/12/19 09:59:19;;;;;;;11.77;5.57;;;1.80;99.90;;;;;;4899239;29;20537;-81
2021/12/19 10:01:47;;;;;;;15.32;5.82;;;1.90;99.90;;;;;;4916370;29;20040;-79
2021/12/19 10:04:35;;;;;;;17.90;8.32;;;2.00;99.90;;;;;;4902398;29;20063;-81
2021/12/19 10:07:09;;;;;;;21.25;9.38;;;2.00;99.90;;;;;;4917065;29;20269;-80
2021/12/19 10:09:54;;;;;;;18.35;6.25;;;2.10;99.90;;;;;;4900199;29;20028;-80
2021/12/19 10:15:06;;;;;;;16.20;8.50;;;2.00;99.90;;;;;;4915975;29;20032;-79
2021/12/19 10:17:33;;;;;;;20.58;8.48;;;1.80;99.90;;;;;;4901496;29;20107;-81
2021/12/19 10:19:59;;;;;;;18.90;7.60;;;1.80;99.90;;;;;;4907606;29;20056;-82
2021/12/19 10:22:26;;;;;;;16.13;7.45;;;1.80;99.90;;;;;;4918858;29;20040;-86
2021/12/19 10:24:53;;;;;;;18.50;6.65;;;1.80;99.90;;;;;;4910064;29;20021;-81
2021/12/19 10:27:40;;;;;;;29.77;8.60;;;1.90;99.90;;;;;;4916277;29;20036;-81
2021/12/19 10:30:29;;;;;;;16.60;7.35;;;1.80;99.90;;;;;;4929835;29;20032;-84
2021/12/19 10:32:55;;;;;;;12.25;5.07;;;1.70;99.90;;;;;;4903322;29;20445;-91
2021/12/19 10:35:28;;;;;;;15.70;6.63;;;1.80;99.90;;;;;;4898145;29;20048;-89
2021/12/19 10:37:55;;;;;;;21.33;5.75;;;1.80;99.90;;;;;;4899277;29;20036;-81
2021/12/19 10:40:21;;;;;;;20.33;6.60;;;1.70;99.90;;;;;;4898499;29;20433;-86
2021/12/19 10:42:54;;;;;;;15.80;4.18;;;1.80;99.90;;;;;;4915534;29;20036;-86
2021/12/19 10:45:32;;;;;;;23.08;8.30;;;1.70;99.90;;;;;;4901272;29;20195;-79
2021/12/19 10:48:36;;;;;;;18.57;8.50;;;1.80;99.90;;;;;;4918204;29;20090;-81
2021/12/19 10:51:17;;;;;;;21.58;7.10;;;1.80;99.90;;;;;;4916871;29;20051;-84
2021/12/19 10:53:54;;;;;;;12.68;6.40;;;1.90;99.90;;;;;;4930304;29;20527;-82
2021/12/19 10:56:26;;;;;;;14.75;7.07;;;2.00;99.90;;;;;;4933155;29;20035;-82
2021/12/19 10:58:57;;;;;;;11.85;5.47;;;2.00;99.90;;;;;;4932481;29;20020;-82
2021/12/19 11:01:35;;;;;;;11.35;4.78;;;2.10;99.90;;;;;;4909047;29;20040;-92
2021/12/19 11:04:05;;;;;;;19.65;9.02;;;2.10;99.90;;;;;;4925890;29;20023;-82
2021/12/19 11:06:50;;;;;;;16.58;5.88;;;2.00;99.90;;;;;;4925303;29;20024;-81
2021/12/19 11:09:20;;;;;;;15.85;6.20;;;2.10;99.90;;;;;;4931046;29;20012;-81
2021/12/19 11:12:03;;;;;;;13.38;4.97;;;2.10;99.90;;;;;;4948118;28;20032;-81
2021/12/19 11:14:38;;;;;;;15.95;8.07;;;2.10;99.90;;;;;;4932409;29;20123;-82
2021/12/19 11:17:15;;;;;;;20.42;6.47;;;2.20;99.90;;;;;;4908645;29;20028;-89
2021/12/19 11:19:41;;;;;;;11.35;5.88;;;2.30;99.90;;;;;;4900261;29;20048;-95
2021/12/19 11:22:08;;;;;;;13.98;6.93;;;2.30;99.90;;;;;;4924001;29;20056;-84
2021/12/19 11:24:40;;;;;;;17.33;5.78;;;2.30;99.90;;;;;;4917863;29;20032;-95
2021/12/19 11:27:10;;;;;;;11.57;4.97;;;2.30;99.90;;;;;;4901764;29;20032;-93
2021/12/19 11:29:37;;;;;;;23.25;6.53;;;2.50;99.90;;;;;;4917068;29;20044;-86
2021/12/19 11:32:08;;;;;;;24.58;10.02;;;2.50;99.90;;;;;;4900325;29;20024;-88
2021/12/19 11:34:36;;;;;;;11.00;6.80;;;2.40;99.90;;;;;;4897047;29;20078;-93
2021/12/19 11:37:10;;;;;;;11.87;7.57;;;2.50;99.90;;;;;;4897812;29;20040;-94
2021/12/19 11:39:57;;;;;;;20.52;9.20;;;2.60;99.90;;;;;;4897246;29;20034;-83
2021/12/19 11:42:34;;;;;;;5.82;4.38;;;2.60;99.90;;;;;;4917418;29;20040;-82
2021/12/19 11:47:51;;;;;;;14.32;6.28;;;2.60;99.90;;;;;;4923280;29;20029;-84
2021/12/19 11:50:25;;;;;;;;;;;2.70;99.90;;;;;;4908960;29;20032;-82
2021/12/19 11:52:59;;;;;;;9.82;4.53;;;2.70;99.90;;;;;;4911102;29;19957;-89
2021/12/19 11:55:29;;;;;;;11.73;5.78;;;2.80;99.90;;;;;;4919819;29;20028;-82
2021/12/19 11:58:12;;;;;;;13.27;6.10;;;2.80;99.90;;;;;;4918295;29;20295;-82
2021/12/19 12:00:47;;;;;;;10.35;6.82;;;2.80;99.90;;;;;;4907072;29;20035;-84
2021/12/19 12:03:12;;;;;;;10.40;5.75;;;2.80;99.90;;;;;;4894029;29;20040;-91
2021/12/19 12:05:46;;;;;;;15.48;6.78;;;2.80;99.90;;;;;;4893037;29;20534;-93
2021/12/19 12:08:15;;;;;;;20.33;8.52;;;2.80;99.90;;;;;;4905172;29;20059;-83
2021/12/19 12:13:25;;;;;;;18.88;8.13;;;2.90;99.90;;;;;;4954830;28;20055;-87
2021/12/19 12:16:02;;;;;;;21.70;7.97;;;3.00;99.90;;;;;;4929042;29;20348;-86
2021/12/19 12:18:37;;;;;;;22.98;8.18;;;3.00;99.90;;;;;;4927454;29;20032;-80
2021/12/19 12:24:04;;;;;;;15.63;6.15;;;3.20;99.90;;;;;;4933205;29;20027;-88
2021/12/19 12:26:36;;;;;;;14.10;7.07;;;3.10;99.90;;;;;;4930179;29;20298;-79
2021/12/19 12:29:02;;;;;;;17.60;9.52;;;3.10;99.90;;;;;;4919985;29;20035;-78
2021/12/19 12:31:28;;;;;;;17.92;7.13;;;3.10;99.90;;;;;;4918803;29;20394;-79
2021/12/19 12:33:55;;;;;;;23.30;7.07;;;3.20;99.90;;;;;;4937942;29;20036;-79
2021/12/19 12:36:22;;;;;;;10.85;6.18;;;3.20;99.90;;;;;;4930265;29;20028;-78
2021/12/19 12:38:51;;;;;;;16.27;7.45;;;3.30;99.90;;;;;;4912142;29;20319;-79
2021/12/19 12:41:29;;;;;;;19.27;7.53;;;3.20;99.90;;;;;;4929584;29;20019;-79
2021/12/19 12:44:02;;;;;;;17.90;7.30;;;3.20;99.90;;;;;;4912035;29;20122;-78
2021/12/19 12:46:28;;;;;;;15.85;8.05;;;3.10;99.90;;;;;;4914638;29;20034;-79
2021/12/19 12:49:00;;;;;;;15.50;7.35;;;3.10;99.90;;;;;;4934982;29;20240;-80
2021/12/19 12:51:39;;;;;;;19.98;6.90;;;3.10;99.90;;;;;;4915032;29;20035;-79
2021/12/19 12:54:08;;;;;;;;;;;3.30;99.90;;;;;;4933982;29;20562;-79
2021/12/19 12:56:40;;;;;;;18.70;6.90;;;3.30;99.90;;;;;;4915084;29;19950;-79
2021/12/19 12:59:06;;;;;;;16.85;8.18;;;3.30;99.90;;;;;;4931898;29;20392;-79
2021/12/19 13:01:47;;;;;;;20.15;6.45;;;3.40;99.90;;;;;;4936006;29;20462;-79
2021/12/19 13:04:14;;;;;;;18.58;8.52;;;3.40;99.90;;;;;;4935966;29;20030;-78
2021/12/19 13:06:53;;;;;;;21.73;9.95;;;3.40;99.90;;;;;;4918464;29;20030;-79
2021/12/19 13:09:49;;;;;;;25.67;9.00;;;3.50;99.90;;;;;;4935895;29;20020;-79
2021/12/19 13:12:28;;;;;;;12.82;7.38;;;3.70;99.90;;;;;;4917700;29;20048;-79
2021/12/19 13:14:54;;;;;;;;;;;4.40;99.90;;;;;;4918931;29;20024;-80
2021/12/19 13:17:22;;;;;;;16.67;7.78;;;4.90;99.90;;;;;;4935990;29;19914;-79
2021/12/19 13:19:51;;;;;;;20.75;8.60;;;5.60;99.90;;;;;;4920176;29;20039;-79
2021/12/19 13:22:24;;;;;;;22.27;8.77;;;5.60;99.90;;;;;;4919008;29;20036;-79
2021/12/19 13:24:52;;;;;;;22.45;9.13;;;6.30;99.90;;;;;;4917809;29;20496;-79
2021/12/19 13:27:28;;;;;;;18.13;7.68;;;6.60;99.90;;;;;;4911526;29;20124;-79
2021/12/19 13:30:07;;;;;;;16.42;7.32;;;7.10;99.90;;;;;;4918045;29;20416;-79
2021/12/19 13:32:44;;;;;;;22.08;7.82;;;7.10;99.90;;;;;;4917987;29;20362;-79
2021/12/19 13:35:17;;;;;;;18.00;7.88;;;7.10;99.90;;;;;;4918325;29;20368;-79
2021/12/19 13:37:59;;;;;;;19.38;7.47;;;7.10;99.90;;;;;;4936272;29;20094;-79
2021/12/19 13:40:45;;;;;;;19.77;7.72;;;7.40;99.90;;;;;;4935664;29;20051;-79
2021/12/19 13:43:37;;;;;;;18.38;7.45;;;6.90;99.90;;;;;;4918460;29;20377;-79
2021/12/19 13:46:07;;;;;;;21.05;9.25;;;5.90;99.90;;;;;;4918136;29;20040;-79
2021/12/19 13:48:35;;;;;;;19.17;7.63;;;5.40;99.90;;;;;;4936579;29;20391;-79
2021/12/19 13:51:01;;;;;;;13.13;6.03;;;4.90;99.90;;;;;;4920316;29;20039;-79
2021/12/19 13:53:30;;;;;;;20.15;8.23;;;4.40;99.90;;;;;;4936799;29;20075;-79
2021/12/19 13:56:05;;;;;;;21.80;8.52;;;4.20;99.90;;;;;;4936123;29;20028;-79
2021/12/19 13:58:38;;;;;;;18.95;8.02;;;3.90;99.90;;;;;;4918999;29;20047;-79
2021/12/19 14:01:17;;;;;;;18.70;7.50;;;3.80;99.90;;;;;;4918326;29;20034;-78
2021/12/19 14:03:58;;;;;;;19.02;8.50;;;4.00;99.90;;;;;;4934711;29;20099;-79
2021/12/19 14:06:29;;;;;;;18.83;7.68;;;4.60;99.90;;;;;;4934929;29;20115;-79
2021/12/19 14:08:57;;;;;;;16.00;7.03;;;5.00;99.90;;;;;;4934410;29;20027;-79
2021/12/19 14:11:25;;;;;;;23.40;8.80;;;5.20;99.90;;;;;;4917793;29;20139;-79
2021/12/19 14:14:00;;;;;;;15.70;6.65;;;6.00;99.90;;;;;;4917949;29;20121;-79
2021/12/19 14:16:33;;;;;;;14.60;7.05;;;6.30;99.90;;;;;;4936585;29;20511;-80
2021/12/19 14:18:59;;;;;;;31.70;9.50;;;6.30;99.90;;;;;;4920029;29;20027;-79
2021/12/19 14:21:39;;;;;;;21.08;7.80;;;6.50;99.90;;;;;;4936740;29;20103;-80